Time;durP1;ratioP1;P1;durP2;ratioP2;P2;SDS_P1;SDS_P2;PMS_P1;PMS_P2;Temp;Humidity;BMP_temperature;BMP_pressure;BME280_temperature;BME280_humidity;BME280_pressure;Samples;Min_cycle;Max_cycle;Signal;HPM_P1;HPM_P2
2022/06/29 00:01:31;;;;;;;12.45;3.70;;;;;;;12.90;86.23;99668.19;4985258;28;20058;-61
2022/06/29 00:04:03;;;;;;;9.27;3.13;;;;;;;12.86;86.54;99663.97;4985347;28;20054;-60
2022/06/29 00:06:34;;;;;;;10.95;3.05;;;;;;;12.91;86.60;99669.06;4986658;28;20238;-61
2022/06/29 00:09:05;;;;;;;7.20;3.05;;;;;;;13.06;86.21;99662.41;4988830;28;20442;-60
2022/06/29 00:11:35;;;;;;;6.25;2.90;;;;;;;13.08;85.19;99665.78;4994991;28;20058;-60
2022/06/29 00:14:06;;;;;;;9.13;2.65;;;;;;;13.10;84.96;99679.72;5000242;28;20057;-61
2022/06/29 00:16:36;;;;;;;6.72;3.03;;;;;;;13.05;84.65;99673.78;5002327;28;20084;-61
2022/06/29 00:19:09;;;;;;;7.43;2.75;;;;;;;13.01;84.48;99674.81;5002329;28;20364;-60
2022/06/29 00:21:39;;;;;;;7.40;2.85;;;;;;;13.27;84.68;99674.75;5001486;28;20050;-60
2022/06/29 00:24:10;;;;;;;11.32;2.80;;;;;;;13.48;83.09;99680.09;5000676;28;20108;-60
2022/06/29 00:26:40;;;;;;;5.68;2.63;;;;;;;13.69;83.40;99674.03;5001349;28;20057;-60
2022/06/29 00:29:11;;;;;;;10.50;3.10;;;;;;;13.78;81.88;99668.44;5001101;28;20046;-62
2022/06/29 00:31:41;;;;;;;6.28;2.55;;;;;;;13.92;82.15;99685.44;5001372;28;20347;-61
2022/06/29 00:34:14;;;;;;;6.40;3.10;;;;;;;14.07;81.00;99682.19;5001158;28;20251;-61
2022/06/29 00:36:44;;;;;;;6.43;2.75;;;;;;;13.97;79.77;99679.06;5001885;28;20046;-60
2022/06/29 00:39:15;;;;;;;8.95;2.72;;;;;;;13.90;80.46;99692.50;5001876;28;20282;-61
2022/06/29 00:41:47;;;;;;;9.50;2.55;;;;;;;13.48;80.49;99649.50;4999678;28;20050;-61
2022/06/29 00:44:20;;;;;;;9.35;3.40;;;;;;;13.77;81.30;99698.22;4999428;28;20096;-61
2022/06/29 00:46:52;;;;;;;10.68;3.38;;;;;;;13.82;81.16;99696.28;5002400;28;20046;-60
2022/06/29 00:49:26;;;;;;;3.65;2.33;;;;;;;13.79;80.03;99701.66;5002507;28;20068;-60
2022/06/29 00:52:05;;;;;;;6.18;3.17;;;;;;;13.81;80.83;99705.09;5002121;28;20069;-60
2022/06/29 00:54:40;;;;;;;13.90;3.25;;;;;;;13.71;80.94;99660.88;5001910;28;20097;-60
2022/06/29 00:57:15;;;;;;;13.05;3.70;;;;;;;14.20;80.47;99707.06;5002092;28;20373;-60
2022/06/29 00:59:48;;;;;;;18.92;3.75;;;;;;;14.22;78.20;99699.97;5001888;28;20066;-60
2022/06/29 01:02:23;;;;;;;11.35;3.42;;;;;;;13.83;78.55;99649.91;5001630;28;20311;-60
2022/06/29 01:04:56;;;;;;;9.73;2.97;;;;;;;14.43;78.45;99703.50;5001932;28;20214;-61
2022/06/29 01:07:29;;;;;;;9.55;2.80;;;;;;;14.22;76.98;99699.97;5000911;28;20050;-61
2022/06/29 01:10:01;;;;;;;9.55;3.33;;;;;;;14.11;78.18;99707.44;5000494;28;20199;-61
2022/06/29 01:12:32;;;;;;;6.38;3.45;;;;;;;14.19;78.15;99707.97;5000578;28;20077;-59
2022/06/29 01:15:03;;;;;;;11.95;3.13;;;;;;;14.36;78.11;99706.44;5000536;28;20482;-60
2022/06/29 01:17:33;;;;;;;5.82;2.95;;;;;;;14.35;76.92;99704.72;5000901;28;20346;-60
2022/06/29 01:20:06;;;;;;;12.10;3.30;;;;;;;14.40;77.22;99708.00;4999669;28;20058;-60
2022/06/29 01:22:39;;;;;;;6.38;3.17;;;;;;;14.39;77.98;99695.81;5000324;28;20061;-60
2022/06/29 01:25:10;;;;;;;11.48;3.67;;;;;;;14.42;77.91;99712.28;5001180;28;20113;-60
2022/06/29 01:27:41;;;;;;;6.73;3.20;;;;;;;14.34;77.89;99713.53;5000974;28;20250;-60
2022/06/29 01:30:13;;;;;;;12.43;3.40;;;;;;;14.39;78.21;99716.84;5001333;28;20312;-60
2022/06/29 01:32:43;;;;;;;6.80;2.83;;;;;;;14.32;77.00;99720.63;5001182;28;20240;-61
2022/06/29 01:35:16;;;;;;;10.40;3.10;;;;;;;14.35;77.42;99720.50;5001173;28;20072;-61
2022/06/29 01:37:48;;;;;;;10.95;3.33;;;;;;;14.44;77.25;99722.75;5001338;28;20062;-60
2022/06/29 01:40:19;;;;;;;7.82;2.78;;;;;;;14.60;76.57;99726.50;5001072;28;20069;-60
2022/06/29 01:42:49;;;;;;;3.95;2.60;;;;;;;14.71;76.68;99733.09;5001034;28;20046;-60
2022/06/29 01:45:20;;;;;;;9.05;2.70;;;;;;;14.82;74.86;99736.09;5000916;28;20104;-60
2022/06/29 01:47:50;;;;;;;8.02;3.17;;;;;;;14.65;74.84;99721.91;5000888;28;20653;-60
2022/06/29 01:50:21;;;;;;;10.15;3.97;;;;;;;14.63;75.56;99725.53;5001062;28;20058;-59
2022/06/29 01:52:53;;;;;;;5.23;2.90;;;;;;;14.53;75.57;99732.94;5000898;28;20223;-60
2022/06/29 01:55:24;;;;;;;11.77;3.27;;;;;;;14.46;76.78;99723.56;5000906;28;20297;-60
2022/06/29 01:57:54;;;;;;;5.83;2.83;;;;;;;14.56;75.31;99740.69;5000550;28;20290;-59
2022/06/29 02:00:25;;;;;;;8.13;2.87;;;;;;;14.56;75.72;99740.69;5000590;28;20285;-61
2022/06/29 02:02:55;;;;;;;7.60;3.20;;;;;;;14.72;75.30;99738.25;5000499;28;20305;-60
2022/06/29 02:05:26;;;;;;;24.57;4.03;;;;;;;15.02;76.21;99744.00;5000487;28;20057;-60
2022/06/29 02:07:58;;;;;;;9.83;3.77;;;;;;;14.96;74.85;99727.66;5000849;28;20289;-60
2022/06/29 02:10:29;;;;;;;21.13;3.83;;;;;;;15.10;74.13;99743.66;5000642;28;20339;-60
2022/06/29 02:13:00;;;;;;;9.47;3.20;;;;;;;14.85;73.48;99746.50;5000571;28;20301;-60
2022/06/29 02:15:30;;;;;;;12.77;3.67;;;;;;;14.92;75.21;99741.84;5000639;28;20652;-60
2022/06/29 02:18:01;;;;;;;10.83;3.27;;;;;;;14.99;74.59;99749.41;5000563;28;20281;-60
2022/06/29 02:20:32;;;;;;;16.80;3.73;;;;;;;15.15;74.21;99740.84;5000755;28;20620;-61
2022/06/29 02:23:04;;;;;;;10.07;3.17;;;;;;;15.29;74.92;99741.09;5000441;28;20309;-60
2022/06/29 02:25:34;;;;;;;18.30;3.73;;;;;;;15.57;73.75;99737.22;5000214;28;20321;-60
2022/06/29 02:28:05;;;;;;;13.57;3.33;;;;;;;15.58;72.35;99744.22;5000230;28;20293;-60
2022/06/29 02:36:11;;;;;;;11.47;4.00;;;;;;;16.20;71.31;99739.59;4999813;28;20285;-60
2022/06/29 02:38:43;;;;;;;13.33;3.27;;;;;;;16.07;70.81;99739.34;4999740;28;20286;-60
2022/06/29 02:41:14;;;;;;;15.60;4.00;;;;;;;15.91;72.12;99740.06;4999849;28;20351;-60
2022/06/29 02:43:45;;;;;;;11.67;3.73;;;;;;;15.99;72.58;99746.75;4999690;28;20309;-60
2022/06/29 02:46:15;;;;;;;12.10;3.73;;;;;;;16.08;71.79;99735.78;4999863;28;20573;-60
2022/06/29 02:48:46;;;;;;;8.83;3.57;;;;;;;16.11;71.83;99735.63;4999728;28;20313;-60
2022/06/29 02:51:17;;;;;;;5.73;3.10;;;;;;;16.03;71.77;99743.06;4999840;28;20324;-60
2022/06/29 02:53:49;;;;;;;20.73;4.10;;;;;;;16.23;71.75;99739.47;5000092;28;20285;-60
2022/06/29 02:56:20;;;;;;;9.87;4.47;;;;;;;16.35;71.11;99741.53;4999608;28;20289;-60
2022/06/29 02:58:51;;;;;;;7.63;3.43;;;;;;;16.20;69.98;99729.94;4999252;28;20290;-60
2022/06/29 03:01:21;;;;;;;9.00;3.13;;;;;;;16.26;70.33;99734.91;4999599;28;20379;-60
2022/06/29 03:03:52;;;;;;;14.73;3.53;;;;;;;16.25;70.57;99727.94;4999498;28;20577;-61
2022/06/29 03:06:22;;;;;;;9.93;3.03;;;;;;;16.38;70.30;99728.19;4999204;28;20282;-60
2022/06/29 03:08:54;;;;;;;8.17;3.07;;;;;;;16.48;68.69;99715.41;4999335;28;20302;-60
2022/06/29 03:11:25;;;;;;;7.83;2.60;;;;;;;16.30;69.73;99719.78;4999261;28;20292;-60
2022/06/29 03:13:56;;;;;;;8.13;3.07;;;;;;;16.26;69.71;99718.22;4999331;28;20347;-61
2022/06/29 03:16:27;;;;;;;5.90;2.60;;;;;;;16.25;69.45;99691.03;4999229;28;20269;-61
2022/06/29 03:18:58;;;;;;;7.37;3.00;;;;;;;16.83;70.16;99718.09;4999137;28;20304;-61
2022/06/29 03:21:28;;;;;;;8.50;2.80;;;;;;;17.20;68.83;99717.91;4999237;28;20299;-60
2022/06/29 03:24:03;;;;;;;13.30;2.60;;;;;;;16.91;68.79;99723.81;4999018;28;20418;-61
2022/06/29 03:26:34;;;;;;;11.13;2.77;;;;;;;16.90;68.16;99725.63;4999397;28;20304;-60
2022/06/29 03:29:05;;;;;;;6.27;2.30;;;;;;;16.93;68.02;99719.31;4999438;28;20289;-60
2022/06/29 03:31:35;;;;;;;9.53;3.10;;;;;;;17.04;69.26;99722.25;4999370;28;20416;-61
2022/06/29 03:34:06;;;;;;;10.40;2.80;;;;;;;17.10;67.52;99721.94;4999217;28;20281;-59
2022/06/29 03:36:37;;;;;;;10.73;2.57;;;;;;;16.67;67.16;99642.31;4998683;28;20291;-60
2022/06/29 03:39:09;;;;;;;7.93;2.67;;;;;;;17.12;68.79;99720.06;4998935;28;20286;-61
2022/06/29 03:41:39;;;;;;;6.90;2.30;;;;;;;17.18;67.98;99717.13;4998783;28;20285;-61
2022/06/29 03:44:10;;;;;;;16.20;3.13;;;;;;;17.37;67.77;99732.84;4998720;28;20317;-61
2022/06/29 03:46:41;;;;;;;5.83;2.70;;;;;;;17.42;67.90;99716.75;4998683;28;20347;-60
2022/06/29 03:49:11;;;;;;;16.47;2.40;;;;;;;17.45;66.88;99724.53;4998817;28;20281;-60
2022/06/29 03:51:42;;;;;;;11.77;3.00;;;;;;;17.57;67.82;99731.78;4998910;28;20277;-61
2022/06/29 03:54:14;;;;;;;21.43;2.60;;;;;;;17.61;68.43;99738.59;4998686;28;20478;-60
2022/06/29 03:56:45;;;;;;;6.93;2.50;;;;;;;17.73;66.90;99730.97;4998994;28;20289;-61
2022/06/29 03:59:15;;;;;;;22.37;4.20;;;;;;;17.65;68.67;99732.22;4998807;28;20328;-61
2022/06/29 04:01:47;;;;;;;7.77;2.27;;;;;;;17.69;67.79;99725.81;4998583;28;20277;-60
2022/06/29 04:04:17;;;;;;;10.90;3.20;;;;;;;17.55;67.60;99691.41;4998623;28;20316;-60
2022/06/29 04:06:48;;;;;;;4.87;2.10;;;;;;;17.75;67.46;99734.38;4998648;28;20289;-61
2022/06/29 04:09:20;;;;;;;4.77;2.00;;;;;;;17.71;66.92;99733.69;4998558;28;20296;-61
2022/06/29 04:11:52;;;;;;;8.73;2.37;;;;;;;17.88;67.77;99724.88;4998484;28;20285;-60
2022/06/29 04:14:24;;;;;;;9.67;3.03;;;;;;;17.78;67.06;99699.84;4998588;28;20324;-60
2022/06/29 04:16:57;;;;;;;12.13;2.20;;;;;;;17.90;66.96;99733.56;4998524;28;20296;-60
2022/06/29 04:19:28;;;;;;;15.63;2.60;;;;;;;18.03;65.83;99734.59;4998370;28;20285;-62
2022/06/29 04:21:59;;;;;;;7.63;2.03;;;;;;;18.10;66.64;99741.25;4998283;28;20474;-60
2022/06/29 04:24:31;;;;;;;5.57;1.97;;;;;;;18.02;65.18;99738.19;4998288;28;20356;-59
2022/06/29 04:27:02;;;;;;;8.70;2.40;;;;;;;18.08;65.43;99727.25;4998283;28;20289;-61
2022/06/29 04:29:32;;;;;;;7.80;2.37;;;;;;;17.95;66.12;99720.09;4998458;28;20285;-61
2022/06/29 04:32:03;;;;;;;7.93;2.53;;;;;;;17.92;66.63;99720.25;4998748;28;20281;-62
2022/06/29 04:34:37;;;;;;;18.87;2.47;;;;;;;17.93;66.81;99728.09;4998550;28;20349;-61
2022/06/29 04:37:07;;;;;;;7.43;2.03;;;;;;;17.67;65.42;99706.59;4998731;28;20296;-60
2022/06/29 04:39:39;;;;;;;13.40;2.53;;;;;;;17.68;66.97;99739.97;4998470;28;20313;-61
2022/06/29 04:42:10;;;;;;;5.47;1.87;;;;;;;17.61;66.04;99737.75;4998615;28;20286;-61
2022/06/29 04:44:46;;;;;;;7.27;2.40;;;;;;;17.50;67.00;99735.69;4998205;28;20305;-60
2022/06/29 04:47:16;;;;;;;7.17;2.10;;;;;;;17.51;66.76;99741.81;4998333;28;20578;-60
2022/06/29 04:49:47;;;;;;;9.53;2.77;;;;;;;17.76;67.71;99741.34;4998193;28;20282;-60
2022/06/29 04:52:18;;;;;;;6.10;2.00;;;;;;;17.80;66.90;99748.22;4998320;28;20613;-60
2022/06/29 04:54:50;;;;;;;5.57;1.90;;;;;;;17.71;66.60;99743.41;4999818;28;20340;-60
2022/06/29 04:57:20;;;;;;;10.63;2.83;;;;;;;17.75;68.16;99742.31;5001678;28;20317;-60
2022/06/29 04:59:51;;;;;;;5.10;1.90;;;;;;;17.76;67.44;99752.78;5001359;28;20293;-61
2022/06/29 05:02:21;;;;;;;4.27;2.00;;;;;;;17.75;66.01;99750.22;5001984;28;20281;-61
2022/06/29 05:04:52;;;;;;;8.53;2.80;;;;;;;17.64;68.18;99754.28;5001734;28;20309;-61
2022/06/29 05:07:23;;;;;;;24.67;3.83;;;;;;;17.77;67.20;99748.34;5001681;28;20575;-63
2022/06/29 05:09:55;;;;;;;19.60;2.60;;;;;;;17.82;66.98;99735.75;5001602;28;20284;-60
2022/06/29 05:12:25;;;;;;;14.33;2.40;;;;;;;18.03;66.04;99745.16;5001601;28;20312;-60
2022/06/29 05:14:56;;;;;;;13.80;2.90;;;;;;;17.98;64.87;99752.50;5001425;28;20755;-61
2022/06/29 05:17:28;;;;;;;6.37;1.97;;;;;;;17.75;66.79;99758.16;5001110;28;20296;-61
2022/06/29 05:19:58;;;;;;;11.73;2.53;;;;;;;17.52;67.13;99754.94;5001340;28;20501;-60
2022/06/29 05:22:29;;;;;;;14.97;2.73;;;;;;;17.46;66.96;99760.56;5001177;28;20308;-62
2022/06/29 05:25:01;;;;;;;24.30;2.73;;;;;;;17.53;66.77;99759.31;5001195;28;20313;-60
2022/06/29 05:27:32;;;;;;;15.73;2.50;;;;;;;17.78;67.59;99755.34;5001315;28;20293;-61
2022/06/29 05:30:02;;;;;;;8.10;2.20;;;;;;;17.61;65.81;99754.44;5001573;28;20694;-60
2022/06/29 05:32:34;;;;;;;11.20;2.53;;;;;;;17.48;67.19;99747.28;5001023;28;20430;-61
2022/06/29 05:35:04;;;;;;;13.80;2.70;;;;;;;17.53;66.90;99754.00;5001094;28;20295;-61
2022/06/29 05:37:40;;;;;;;7.77;2.60;;;;;;;17.48;66.12;99763.97;5001222;28;20278;-61
2022/06/29 05:40:13;;;;;;;6.73;2.43;;;;;;;17.35;66.51;99760.28;5001249;28;20340;-61
2022/06/29 05:42:43;;;;;;;4.70;2.00;;;;;;;17.25;66.54;99766.03;5001135;28;20285;-61
2022/06/29 05:45:14;;;;;;;12.60;2.43;;;;;;;17.28;67.46;99756.25;5001016;28;20305;-60
2022/06/29 05:47:44;;;;;;;6.43;2.23;;;;;;;17.80;66.64;99754.34;5000654;28;20301;-61
2022/06/29 05:50:16;;;;;;;8.83;1.90;;;;;;;18.05;65.87;99738.00;5001013;28;20346;-61
2022/06/29 05:52:47;;;;;;;13.73;2.60;;;;;;;18.45;65.55;99746.31;5000753;28;20434;-60
2022/06/29 05:55:19;;;;;;;5.53;2.13;;;;;;;18.61;61.79;99737.50;5000648;28;20358;-60
2022/06/29 05:57:50;;;;;;;18.07;2.87;;;;;;;18.73;64.59;99745.56;5000645;28;20391;-61
2022/06/29 06:00:21;;;;;;;13.97;2.97;;;;;;;18.58;62.88;99745.63;5000696;28;20339;-60
2022/06/29 06:02:54;;;;;;;5.07;1.80;;;;;;;18.12;63.74;99733.19;5000731;28;20349;-61
2022/06/29 06:05:25;;;;;;;5.50;2.33;;;;;;;17.65;65.26;99745.44;4999759;28;20309;-61
2022/06/29 06:07:55;;;;;;;9.10;2.37;;;;;;;17.30;65.71;99738.50;5000101;28;20336;-62
2022/06/29 06:10:28;;;;;;;7.97;2.60;;;;;;;17.30;66.29;99744.66;5000415;28;20345;-61
2022/06/29 06:12:58;;;;;;;11.63;3.13;;;;;;;17.37;67.54;99734.63;5000298;28;20300;-60
2022/06/29 06:15:29;;;;;;;19.20;3.07;;;;;;;17.69;66.90;99746.94;5000341;28;20295;-61
2022/06/29 06:17:59;;;;;;;11.47;2.43;;;;;;;17.56;64.39;99743.28;5000258;28;20353;-61
2022/06/29 06:20:31;;;;;;;7.30;2.50;;;;;;;17.62;65.01;99766.75;5000262;28;20317;-61
2022/06/29 06:23:01;;;;;;;14.13;2.30;;;;;;;17.57;65.73;99767.91;5000057;28;20273;-61
2022/06/29 06:25:34;;;;;;;13.87;2.97;;;;;;;17.66;66.45;99784.13;5000123;28;20331;-61
2022/06/29 06:28:06;;;;;;;16.17;3.17;;;;;;;18.00;64.91;99792.91;5000333;28;20298;-60
2022/06/29 06:30:37;;;;;;;7.93;2.80;;;;;;;18.06;63.19;99797.84;5000056;28;20477;-60
2022/06/29 06:33:08;;;;;;;9.70;2.73;;;;;;;17.84;63.94;99760.31;4999840;28;20450;-61
2022/06/29 06:35:38;;;;;;;5.63;2.27;;;;;;;17.93;64.92;99790.69;4999930;28;20449;-61
2022/06/29 06:38:09;;;;;;;7.90;2.40;;;;;;;17.86;65.59;99785.72;4999938;28;20568;-61
2022/06/29 06:43:34;;;;;;;5.90;2.30;;;;;;;17.21;66.03;99788.22;4980944;28;20285;-61
2022/06/29 06:46:05;;;;;;;7.80;2.50;;;;;;;17.41;67.20;99783.72;4999702;28;20431;-60
2022/06/29 06:48:36;;;;;;;5.70;3.03;;;;;;;17.61;65.22;99780.88;4999797;28;20606;-60
2022/06/29 06:51:06;;;;;;;6.70;2.47;;;;;;;17.73;64.84;99783.81;4999656;28;20287;-60
2022/06/29 06:53:37;;;;;;;21.13;3.67;;;;;;;17.76;64.79;99773.06;4999686;28;20285;-62
2022/06/29 06:56:10;;;;;;;17.37;3.63;;;;;;;17.72;63.75;99780.28;4999407;28;20286;-61
2022/06/29 06:58:40;;;;;;;11.40;2.53;;;;;;;17.73;63.80;99783.81;4999275;28;20361;-60
2022/06/29 07:01:20;;;;;;;10.77;2.40;;;;;;;17.60;64.21;99789.75;4999347;28;20597;-60
2022/06/29 07:03:51;;;;;;;18.30;3.80;;;;;;;17.80;64.21;99782.56;4999607;28;20296;-61
2022/06/29 07:06:22;;;;;;;9.43;2.73;;;;;;;18.03;62.90;99784.81;4999282;28;20335;-61
2022/06/29 07:08:54;;;;;;;6.80;2.10;;;;;;;17.87;62.34;99791.84;4999379;28;20285;-61
2022/06/29 07:11:26;;;;;;;18.80;2.80;;;;;;;17.67;63.82;99800.81;4999412;28;20281;-61
2022/06/29 07:13:57;;;;;;;6.83;1.97;;;;;;;17.41;63.10;99804.84;4999373;28;20349;-61
2022/06/29 07:16:27;;;;;;;7.80;2.83;;;;;;;17.00;64.99;99816.59;4999226;28;20320;-61
2022/06/29 07:18:58;;;;;;;13.67;3.47;;;;;;;16.90;65.75;99809.19;4999039;28;20285;-61
2022/06/29 07:21:29;;;;;;;13.77;2.43;;;;;;;16.57;66.43;99812.50;4999416;28;20285;-60
2022/06/29 07:23:59;;;;;;;9.23;2.13;;;;;;;16.47;66.81;99816.53;4999275;28;20286;-61
2022/06/29 07:26:32;;;;;;;8.23;2.40;;;;;;;16.32;67.52;99808.41;4998919;28;20324;-61
2022/06/29 07:29:02;;;;;;;15.53;3.10;;;;;;;16.30;67.89;99805.00;4999074;28;20290;-62
2022/06/29 07:31:33;;;;;;;10.97;4.60;;;;;;;16.15;67.68;99805.75;4999042;28;20570;-61
2022/06/29 07:34:04;;;;;;;19.07;3.57;;;;;;;15.86;68.19;99805.28;4999168;28;20265;-61
2022/06/29 07:36:34;;;;;;;16.47;2.83;;;;;;;15.58;69.24;99804.78;4998942;28;20489;-61
2022/06/29 07:39:05;;;;;;;9.67;2.10;;;;;;;15.36;69.65;99803.09;4998862;28;20273;-61
2022/06/29 07:41:37;;;;;;;14.67;2.27;;;;;;;15.31;70.03;99802.44;4999112;28;20292;-61
2022/06/29 07:44:08;;;;;;;5.47;1.90;;;;;;;15.29;70.73;99799.00;4997974;28;20340;-61
2022/06/29 07:46:39;;;;;;;6.67;2.00;;;;;;;15.20;70.50;99809.91;4997802;28;20368;-60
2022/06/29 07:49:10;;;;;;;3.97;1.67;;;;;;;15.28;70.32;99807.84;4998459;28;20285;-61
2022/06/29 07:51:40;;;;;;;6.23;1.90;;;;;;;15.18;70.42;99817.06;4998421;28;20345;-61
2022/06/29 07:54:11;;;;;;;10.43;2.30;;;;;;;14.85;71.16;99821.03;4997498;28;20504;-61
2022/06/29 07:56:43;;;;;;;9.30;2.60;;;;;;;14.69;71.71;99830.44;4998578;28;20353;-61
2022/06/29 07:59:34;;;;;;;20.80;2.23;;;;;;;14.49;72.50;99822.47;4987075;28;20293;-61
2022/06/29 08:02:05;;;;;;;9.93;1.97;;;;;;;14.38;72.96;99825.53;4986069;28;20384;-62
2022/06/29 08:04:36;;;;;;;19.37;2.80;;;;;;;14.36;73.10;99824.72;4986344;28;20298;-61
2022/06/29 08:07:26;;;;;;;6.70;2.10;;;;;;;14.43;73.52;99834.94;4985658;28;20278;-61
2022/06/29 08:09:57;;;;;;;7.97;2.00;;;;;;;14.26;72.68;99831.25;4985733;28;20278;-61
2022/06/29 08:12:29;;;;;;;12.13;3.33;;;;;;;14.08;73.83;99835.41;4985301;28;20295;-60
2022/06/29 08:15:00;;;;;;;10.20;4.40;;;;;;;14.03;74.56;99838.22;4984891;28;20282;-61
2022/06/29 08:17:30;;;;;;;4.60;2.35;;;;;;;13.95;75.17;99837.63;4984624;28;20336;-61
2022/06/29 08:20:03;;;;;;;9.57;2.50;;;;;;;13.98;75.39;99838.41;4984707;28;20058;-61
2022/06/29 08:22:34;;;;;;;7.50;2.13;;;;;;;13.98;75.26;99837.56;4985159;28;20579;-61
2022/06/29 08:25:05;;;;;;;5.65;1.98;;;;;;;13.94;75.65;99846.44;4986148;28;20060;-62
2022/06/29 08:27:38;;;;;;;23.73;2.50;;;;;;;13.84;75.50;99858.19;4986135;28;20073;-61
2022/06/29 08:30:16;;;;;;;19.10;3.50;;;;;;;13.71;75.85;99856.00;4987204;28;20105;-61
2022/06/29 08:32:47;;;;;;;9.68;2.00;;;;;;;13.58;76.21;99849.50;4988878;28;20058;-61
2022/06/29 08:35:19;;;;;;;3.85;1.67;;;;;;;13.50;76.52;99851.50;4989267;28;20379;-61
2022/06/29 08:37:49;;;;;;;12.15;2.15;;;;;;;13.55;77.04;99854.84;4988999;28;20109;-60
2022/06/29 08:40:20;;;;;;;6.93;2.45;;;;;;;13.44;76.93;99857.00;4988882;28;20042;-61
2022/06/29 08:42:53;;;;;;;9.13;2.20;;;;;;;13.42;76.94;99850.94;4989109;28;20054;-61
2022/06/29 08:45:24;;;;;;;18.63;2.88;;;;;;;13.42;77.16;99869.31;4988964;28;20109;-62
2022/06/29 08:47:55;;;;;;;5.88;2.30;;;;;;;13.40;77.00;99879.00;4988937;28;20122;-61
2022/06/29 08:50:25;;;;;;;9.13;2.03;;;;;;;13.43;77.15;99881.50;4988654;28;20081;-61
2022/06/29 08:52:59;;;;;;;8.13;1.85;;;;;;;13.44;77.04;99883.22;4988698;28;20045;-61
2022/06/29 08:55:31;;;;;;;8.40;1.73;;;;;;;13.34;77.20;99888.78;4988960;28;20354;-61
2022/06/29 08:58:04;;;;;;;3.80;1.40;;;;;;;13.22;76.82;99891.78;4988511;28;20062;-61
2022/06/29 09:00:38;;;;;;;1.65;1.20;;;;;;;13.12;76.86;99887.75;4988374;28;20394;-61
2022/06/29 09:03:10;;;;;;;20.75;2.08;;;;;;;13.10;77.07;99894.81;4989311;28;20062;-60
2022/06/29 09:05:41;;;;;;;9.20;1.52;;;;;;;13.02;77.36;99896.81;4989043;28;20061;-61
2022/06/29 09:08:11;;;;;;;5.95;1.92;;;;;;;13.03;77.96;99899.41;4989261;28;20050;-61
2022/06/29 09:10:42;;;;;;;15.85;2.78;;;;;;;13.03;77.50;99903.78;4988579;28;20069;-61
2022/06/29 09:13:21;;;;;;;19.95;1.98;;;;;;;12.91;77.83;99910.28;4988375;28;20141;-61
2022/06/29 09:15:58;;;;;;;4.88;1.63;;;;;;;12.80;78.41;99902.75;4988444;28;20113;-61
2022/06/29 09:18:31;;;;;;;5.18;1.70;;;;;;;12.68;78.25;99906.63;4988274;28;20238;-61
2022/06/29 09:21:02;;;;;;;7.18;1.65;;;;;;;12.72;78.52;99915.25;4988355;28;20287;-61
2022/06/29 09:23:34;;;;;;;11.00;2.10;;;;;;;12.65;78.63;99913.72;4988437;28;20057;-61
2022/06/29 09:26:05;;;;;;;16.77;2.58;;;;;;;12.65;79.20;99924.19;4987953;28;20069;-61
2022/06/29 09:28:37;;;;;;;15.05;2.03;;;;;;;12.71;79.04;99916.16;4988090;28;20065;-61
2022/06/29 09:31:08;;;;;;;10.10;1.88;;;;;;;12.71;79.51;99924.03;4988217;28;20065;-61
2022/06/29 09:33:39;;;;;;;8.48;1.88;;;;;;;12.69;79.22;99917.97;4988229;28;20066;-60
2022/06/29 09:36:13;;;;;;;3.67;1.45;;;;;;;11.97;79.37;99813.56;4988409;28;20121;-61
2022/06/29 09:38:44;;;;;;;8.98;1.40;;;;;;;12.56;79.66;99919.25;4987901;28;20526;-60
2022/06/29 09:41:15;;;;;;;7.72;1.83;;;;;;;12.54;79.68;99926.28;4987681;28;20062;-60
2022/06/29 09:43:48;;;;;;;8.73;1.70;;;;;;;12.20;79.91;99885.34;4987883;28;20089;-60
2022/06/29 09:46:19;;;;;;;6.32;1.50;;;;;;;12.40;80.27;99930.16;4990213;28;20152;-60
2022/06/29 09:48:52;;;;;;;5.82;1.30;;;;;;;12.37;80.13;99934.63;4989023;28;20062;-60
2022/06/29 09:51:32;;;;;;;5.22;1.70;;;;;;;12.34;80.31;99946.06;4988314;28;20404;-61
2022/06/29 09:54:06;;;;;;;2.38;1.30;;;;;;;12.29;80.36;99942.72;4987729;28;20050;-61
2022/06/29 09:56:41;;;;;;;8.73;1.88;;;;;;;12.17;80.66;99943.06;4987156;28;20365;-62
2022/06/29 09:59:15;;;;;;;7.32;1.60;;;;;;;12.02;80.76;99945.19;4988183;28;20118;-61
2022/06/29 10:04:34;;;;;;;2.65;1.20;;;;;;;12.00;81.02;99962.72;4987762;28;20050;-60
2022/06/29 10:07:06;;;;;;;6.07;1.50;;;;;;;11.98;81.96;99968.88;4987467;28;20068;-60
2022/06/29 10:09:37;;;;;;;13.57;1.90;;;;;;;11.98;82.11;99964.53;4987730;28;20065;-60
2022/06/29 10:15:18;;;;;;;13.27;2.20;;;;;;;11.94;82.48;99982.97;4987354;28;20129;-60
2022/06/29 10:17:57;;;;;;;9.00;1.50;;;;;;;11.89;82.50;99975.25;4987163;28;20053;-61
2022/06/29 10:20:39;;;;;;;6.30;1.77;;;;;;;11.80;82.62;99975.44;4987046;28;20062;-61
2022/06/29 10:23:10;;;;;;;2.80;1.20;;;;;;;11.74;82.71;99980.84;4987476;28;20274;-61
2022/06/29 10:25:41;;;;;;;4.55;1.55;;;;;;;11.66;83.09;99979.28;4987490;28;20110;-61
2022/06/29 10:28:20;;;;;;;7.15;1.73;;;;;;;11.61;83.59;99975.91;4989263;28;20122;-61
2022/06/29 10:30:54;;;;;;;6.15;1.73;;;;;;;11.59;83.58;99982.94;4990269;28;20126;-61
2022/06/29 10:33:35;;;;;;;5.00;1.40;;;;;;;11.53;83.79;99977.88;4987551;28;20072;-61
2022/06/29 10:36:07;;;;;;;5.35;1.73;;;;;;;11.49;83.72;99976.22;4987030;28;20058;-60
2022/06/29 10:39:11;;;;;;;5.47;1.52;;;;;;;11.50;84.08;99988.41;4987014;28;20055;-61
2022/06/29 10:44:59;;;;;;;2.08;1.20;;;;;;;11.44;84.32;99993.78;4986658;28;20042;-60
2022/06/29 10:47:31;;;;;;;7.47;1.60;;;;;;;11.40;84.36;100010.44;4986611;28;20062;-60
2022/06/29 10:50:26;;;;;;;7.22;1.52;;;;;;;11.32;84.61;100015.00;4986678;28;20062;-60
2022/06/29 10:52:58;;;;;;;5.05;1.30;;;;;;;11.31;85.20;100010.69;4970676;28;20081;-61
2022/06/29 10:55:30;;;;;;;7.93;1.40;;;;;;;11.42;84.93;100026.97;4986591;28;20081;-60
2022/06/29 10:58:02;;;;;;;11.80;1.60;;;;;;;11.38;84.71;100031.44;4987076;28;20146;-61
2022/06/29 11:00:34;;;;;;;3.92;1.40;;;;;;;11.33;84.69;100032.41;4986222;28;20125;-61
2022/06/29 11:03:18;;;;;;;2.38;1.25;;;;;;;11.26;84.68;100041.28;4986753;28;20065;-60
2022/06/29 11:17:02;;;;;;;1.50;1.20;;;;;;;11.04;85.53;100061.84;4988170;28;20062;-61
2022/06/29 11:19:36;;;;;;;5.13;1.77;;;;;;;10.95;85.33;100062.88;4986532;28;20086;-61
2022/06/29 11:22:13;;;;;;;3.97;1.40;;;;;;;10.26;85.81;99963.25;4986278;28;20255;-61
2022/06/29 11:24:54;;;;;;;2.08;1.30;;;;;;;10.92;86.12;100078.66;4986289;28;20064;-61
2022/06/29 11:27:38;;;;;;;4.65;1.20;;;;;;;10.94;86.05;100076.88;4986305;28;20367;-61
2022/06/29 11:30:10;;;;;;;1.52;1.20;;;;;;;10.92;86.01;100083.88;4986107;28;20286;-61
2022/06/29 11:32:43;;;;;;;2.17;1.40;;;;;;;10.85;86.01;100082.28;4986332;28;20316;-61
2022/06/29 11:35:17;;;;;;;1.80;1.30;;;;;;;10.76;86.37;100076.34;4986007;28;20287;-61
2022/06/29 11:37:51;;;;;;;6.32;1.33;;;;;;;10.79;86.70;100081.50;4986262;28;20118;-61
2022/06/29 11:40:33;;;;;;;6.78;1.60;;;;;;;10.82;86.58;100077.97;4986126;28;20130;-61
2022/06/29 11:43:07;;;;;;;1.60;1.48;;;;;;;10.83;86.53;100084.06;4986114;28;20054;-61
2022/06/29 11:45:43;;;;;;;2.80;1.45;;;;;;;10.76;86.27;100084.19;4986223;28;20062;-61
2022/06/29 11:48:16;;;;;;;3.75;1.40;;;;;;;10.67;86.52;100079.13;4985911;28;20065;-61
2022/06/29 11:50:51;;;;;;;2.40;1.40;;;;;;;10.66;86.60;100087.88;4985857;28;20062;-61
2022/06/29 11:53:43;;;;;;;3.17;1.42;;;;;;;10.58;86.84;100087.16;4986109;28;20078;-61
2022/06/29 11:56:16;;;;;;;3.17;1.58;;;;;;;10.45;87.10;100077.84;4985603;28;20090;-61
2022/06/29 11:58:49;;;;;;;2.38;1.58;;;;;;;10.57;87.23;100098.50;4985700;28;20113;-62
2022/06/29 12:01:22;;;;;;;2.78;1.42;;;;;;;10.57;87.37;100098.50;4986158;28;20042;-62
2022/06/29 12:03:53;;;;;;;2.30;1.30;;;;;;;10.57;87.41;100098.50;4989847;28;20050;-61
2022/06/29 12:06:28;;;;;;;1.92;1.58;;;;;;;10.62;87.24;100107.13;4991871;28;20693;-61
2022/06/29 12:08:59;;;;;;;5.32;1.42;;;;;;;10.42;87.15;100067.44;4990196;28;20062;-61
2022/06/29 12:11:29;;;;;;;2.20;1.35;;;;;;;10.45;87.09;100075.22;4989818;28;20226;-61
2022/06/29 12:14:00;;;;;;;3.70;1.50;;;;;;;10.64;87.11;100105.34;4990239;28;20054;-61
2022/06/29 12:16:30;;;;;;;2.30;1.83;;;;;;;10.65;87.24;100101.81;4990501;28;20125;-62
2022/06/29 12:19:01;;;;;;;2.50;1.45;;;;;;;10.66;87.29;100103.56;4990768;28;20058;-62
2022/06/29 12:21:33;;;;;;;2.83;1.40;;;;;;;10.66;86.99;100111.41;4990029;28;20338;-62